Startpagina
METAR-TAF:

METAR-TAF

Vliegvelden :

Mission Field

Livingston, Montana, Verenigde Staten

breedte: 45-41-58N, lengte: 110-26-54W, hoogte: 1419 m

Actueel weer

Dit bericht is 44 minuten geleden gemaakt, om 10:53 UTC
Weinig wind
Temperatuur 10°C
Vochtigheid 82%
Druk 1020 hPa
Zicht: 16.1 km
Onbewolkt

METAR: KLVM 191053Z AUTO 00000KT 10SM CLR 10/07 A3013 RMK AO2 SLP166 T01000067

Tijdstip: 05:37 (11:37 UTC)

Verwachting

Dit bericht is 5 minuten geleden gemaakt, om 11:32 UTC
Verwachting geldig van 19 om 12 UTC tot 20 om 12 UTC
Wind 7 kt uit het westen
Zicht: 10 km
Weinig wolken op 11000 ft
Van 19 om 1800 UTC
Wind 12 kt uit het noordwesten met uitschieters tot 19 kt
Zicht: 10 km
Weinig wolken op 11000 ft
Van 20 om 0200 UTC
Wind 9 kt uit het oosten
Zicht: 10 km
Weinig wolken op 11000 ft
Van 20 om 0900 UTC
Wind 9 kt uit het zuidwesten
Zicht: 10 km
Weinig wolken op 11000 ft

TAF: KLVM 191132Z 1912/2012 28007KT P6SM FEW110 FM191800 31012G19KT P6SM FEW110 FM200200 09009KT P6SM FEW110 FM200900 23009KT P6SM FEW110

Waarnemingen en weersverwachtingen van meer dan 4000 vliegvelden (METAR en TAF).

De beschikbare stations zijn de gele en rode punten op de kaart.

Ga met uw muis naar het station om de naam te zien.

Klik dan om waarnemingen en weersverwachtingen te zien.

kaart wijzigen: klik op de groene knoppen met een zwart kruis om in te zoomen, op de groene knop met een streepje om uit te zoomen of op de groene pijlen voor aangrenzende kaarten.


METAR-TAF: